sensor_id;sensor_type;location;lat;lon;timestamp;pressure;altitude;pressure_sealevel;temperature;humidity
48077;BME280;33854;57.708;12.008;2023-04-25T00:01:54;98833.25;;;9.31;100.00
48077;BME280;33854;57.708;12.008;2023-04-25T00:04:21;98819.38;;;9.30;100.00
48077;BME280;33854;57.708;12.008;2023-04-25T00:06:47;98804.72;;;9.29;100.00
48077;BME280;33854;57.708;12.008;2023-04-25T00:09:13;98780.63;;;9.14;100.00
48077;BME280;33854;57.708;12.008;2023-04-25T00:11:40;98775.19;;;9.18;100.00
48077;BME280;33854;57.708;12.008;2023-04-25T00:14:05;98757.28;;;9.13;100.00
48077;BME280;33854;57.708;12.008;2023-04-25T00:16:32;98734.88;;;8.99;100.00
48077;BME280;33854;57.708;12.008;2023-04-25T00:19:00;98726.75;;;9.04;100.00
48077;BME280;33854;57.708;12.008;2023-04-25T00:21:26;98716.66;;;8.99;100.00
48077;BME280;33854;57.708;12.008;2023-04-25T00:23:53;98700.41;;;8.96;100.00
48077;BME280;33854;57.708;12.008;2023-04-25T00:26:19;98686.00;;;8.92;100.00
48077;BME280;33854;57.708;12.008;2023-04-25T00:28:46;98674.03;;;8.89;100.00
48077;BME280;33854;57.708;12.008;2023-04-25T00:31:11;98643.75;;;8.88;100.00
48077;BME280;33854;57.708;12.008;2023-04-25T00:33:37;98629.41;;;8.83;100.00
48077;BME280;33854;57.708;12.008;2023-04-25T00:36:02;98614.88;;;8.80;100.00
48077;BME280;33854;57.708;12.008;2023-04-25T00:38:28;98610.94;;;8.75;100.00
48077;BME280;33854;57.708;12.008;2023-04-25T00:40:53;98599.69;;;8.74;100.00
48077;BME280;33854;57.708;12.008;2023-04-25T00:43:21;98572.25;;;8.70;100.00
48077;BME280;33854;57.708;12.008;2023-04-25T00:45:47;98547.97;;;8.58;100.00
48077;BME280;33854;57.708;12.008;2023-04-25T00:48:17;98555.44;;;8.63;100.00
48077;BME280;33854;57.708;12.008;2023-04-25T00:50:50;98545.25;;;8.60;100.00
48077;BME280;33854;57.708;12.008;2023-04-25T00:53:16;98545.75;;;8.65;100.00
48077;BME280;33854;57.708;12.008;2023-04-25T00:55:42;98541.38;;;8.66;100.00
48077;BME280;33854;57.708;12.008;2023-04-25T00:58:07;98526.84;;;8.63;100.00
48077;BME280;33854;57.708;12.008;2023-04-25T01:00:32;98517.16;;;8.65;100.00
48077;BME280;33854;57.708;12.008;2023-04-25T01:02:58;98505.91;;;8.65;100.00
48077;BME280;33854;57.708;12.008;2023-04-25T01:05:25;98489.59;;;8.63;100.00
48077;BME280;33854;57.708;12.008;2023-04-25T01:07:50;98482.41;;;8.66;100.00
48077;BME280;33854;57.708;12.008;2023-04-25T01:10:16;98467.88;;;8.64;100.00
48077;BME280;33854;57.708;12.008;2023-04-25T01:12:42;98454.81;;;8.52;100.00
48077;BME280;33854;57.708;12.008;2023-04-25T01:15:07;98462.91;;;8.61;100.00
48077;BME280;33854;57.708;12.008;2023-04-25T01:17:34;98456.88;;;8.60;100.00
48077;BME280;33854;57.708;12.008;2023-04-25T01:20:03;98440.44;;;8.59;100.00
48077;BME280;33854;57.708;12.008;2023-04-25T01:22:29;98425.06;;;8.56;100.00
48077;BME280;33854;57.708;12.008;2023-04-25T01:24:54;98415.38;;;8.58;100.00
48077;BME280;33854;57.708;12.008;2023-04-25T01:27:21;98403.19;;;8.59;100.00
48077;BME280;33854;57.708;12.008;2023-04-25T01:29:48;98389.72;;;8.54;100.00
48077;BME280;33854;57.708;12.008;2023-04-25T01:32:15;98376.50;;;8.57;100.00
48077;BME280;33854;57.708;12.008;2023-04-25T01:34:40;98363.38;;;8.58;100.00
48077;BME280;33854;57.708;12.008;2023-04-25T01:37:06;98351.44;;;8.56;100.00
48077;BME280;33854;57.708;12.008;2023-04-25T01:39:31;98332.91;;;8.61;100.00
48077;BME280;33854;57.708;12.008;2023-04-25T01:41:59;98319.06;;;8.60;100.00
48077;BME280;33854;57.708;12.008;2023-04-25T01:44:25;98292.00;;;8.51;100.00
48077;BME280;33854;57.708;12.008;2023-04-25T01:46:51;98294.84;;;8.59;100.00
48077;BME280;33854;57.708;12.008;2023-04-25T01:49:16;98283.25;;;8.52;100.00
48077;BME280;33854;57.708;12.008;2023-04-25T01:51:42;98269.53;;;8.50;100.00
48077;BME280;33854;57.708;12.008;2023-04-25T01:54:08;98257.84;;;8.45;100.00
48077;BME280;33854;57.708;12.008;2023-04-25T01:56:37;98253.94;;;8.50;100.00
48077;BME280;33854;57.708;12.008;2023-04-25T01:59:04;98244.63;;;8.48;100.00
48077;BME280;33854;57.708;12.008;2023-04-25T02:01:30;98238.81;;;8.44;100.00
48077;BME280;33854;57.708;12.008;2023-04-25T02:03:55;98236.13;;;8.46;100.00
48077;BME280;33854;57.708;12.008;2023-04-25T02:06:21;98232.78;;;8.44;100.00
48077;BME280;33854;57.708;12.008;2023-04-25T02:08:46;98227.97;;;8.39;100.00
48077;BME280;33854;57.708;12.008;2023-04-25T02:11:11;98228.41;;;8.33;100.00
48077;BME280;33854;57.708;12.008;2023-04-25T02:13:37;98235.63;;;8.30;100.00
48077;BME280;33854;57.708;12.008;2023-04-25T02:16:02;98233.97;;;8.29;100.00
48077;BME280;33854;57.708;12.008;2023-04-25T02:18:28;98192.22;;;7.97;100.00
48077;BME280;33854;57.708;12.008;2023-04-25T02:20:53;98243.53;;;8.28;100.00
48077;BME280;33854;57.708;12.008;2023-04-25T02:23:19;98247.06;;;8.27;100.00
48077;BME280;33854;57.708;12.008;2023-04-25T02:25:45;98246.16;;;8.28;100.00
48077;BME280;33854;57.708;12.008;2023-04-25T02:28:10;98245.31;;;8.28;100.00
48077;BME280;33854;57.708;12.008;2023-04-25T02:30:36;98230.63;;;8.27;100.00
48077;BME280;33854;57.708;12.008;2023-04-25T02:33:01;98247.28;;;8.24;100.00
48077;BME280;33854;57.708;12.008;2023-04-25T02:35:27;98244.81;;;8.23;100.00
48077;BME280;33854;57.708;12.008;2023-04-25T02:37:52;98256.13;;;8.22;100.00
48077;BME280;33854;57.708;12.008;2023-04-25T02:40:18;98261.22;;;8.23;100.00
48077;BME280;33854;57.708;12.008;2023-04-25T02:42:43;98252.94;;;8.18;100.00
48077;BME280;33854;57.708;12.008;2023-04-25T02:45:11;98262.75;;;8.26;100.00
48077;BME280;33854;57.708;12.008;2023-04-25T02:47:36;98257.38;;;8.29;100.00
48077;BME280;33854;57.708;12.008;2023-04-25T02:50:02;98258.19;;;8.29;100.00
48077;BME280;33854;57.708;12.008;2023-04-25T02:52:28;98264.41;;;8.27;100.00
48077;BME280;33854;57.708;12.008;2023-04-25T02:54:53;98266.19;;;8.26;100.00
48077;BME280;33854;57.708;12.008;2023-04-25T02:57:18;98259.34;;;8.25;100.00
48077;BME280;33854;57.708;12.008;2023-04-25T02:59:44;98259.44;;;8.24;100.00
48077;BME280;33854;57.708;12.008;2023-04-25T03:02:10;98261.81;;;8.27;100.00
48077;BME280;33854;57.708;12.008;2023-04-25T03:04:35;98252.88;;;8.31;100.00
48077;BME280;33854;57.708;12.008;2023-04-25T03:07:01;98255.94;;;8.36;100.00
48077;BME280;33854;57.708;12.008;2023-04-25T03:09:26;98251.09;;;8.31;100.00
48077;BME280;33854;57.708;12.008;2023-04-25T03:11:52;98252.88;;;8.31;100.00
48077;BME280;33854;57.708;12.008;2023-04-25T03:14:17;98256.31;;;8.31;100.00
48077;BME280;33854;57.708;12.008;2023-04-25T03:16:43;98265.38;;;8.26;100.00
48077;BME280;33854;57.708;12.008;2023-04-25T03:19:08;98267.22;;;8.24;100.00
48077;BME280;33854;57.708;12.008;2023-04-25T03:21:35;98273.25;;;8.24;100.00
48077;BME280;33854;57.708;12.008;2023-04-25T03:24:02;98277.63;;;8.24;100.00
48077;BME280;33854;57.708;12.008;2023-04-25T03:26:28;98283.19;;;8.19;100.00
48077;BME280;33854;57.708;12.008;2023-04-25T03:28:53;98297.09;;;8.18;100.00
48077;BME280;33854;57.708;12.008;2023-04-25T03:31:19;98299.00;;;8.16;100.00
48077;BME280;33854;57.708;12.008;2023-04-25T03:33:44;98300.28;;;8.11;100.00
48077;BME280;33854;57.708;12.008;2023-04-25T03:36:10;98300.28;;;8.11;100.00
48077;BME280;33854;57.708;12.008;2023-04-25T03:38:35;98301.72;;;8.15;100.00
48077;BME280;33854;57.708;12.008;2023-04-25T03:41:01;98304.16;;;8.05;100.00
48077;BME280;33854;57.708;12.008;2023-04-25T03:43:27;98309.56;;;8.02;100.00
48077;BME280;33854;57.708;12.008;2023-04-25T03:45:53;98318.69;;;8.08;100.00
48077;BME280;33854;57.708;12.008;2023-04-25T03:48:18;98313.97;;;8.13;100.00
48077;BME280;33854;57.708;12.008;2023-04-25T03:50:47;98321.06;;;8.11;100.00
48077;BME280;33854;57.708;12.008;2023-04-25T03:53:12;98318.47;;;8.11;100.00
48077;BME280;33854;57.708;12.008;2023-04-25T03:55:37;98312.56;;;8.09;100.00
48077;BME280;33854;57.708;12.008;2023-04-25T03:58:03;98310.19;;;8.06;100.00
48077;BME280;33854;57.708;12.008;2023-04-25T04:00:28;98313.50;;;8.08;100.00
48077;BME280;33854;57.708;12.008;2023-04-25T04:02:54;98305.22;;;8.02;100.00
48077;BME280;33854;57.708;12.008;2023-04-25T04:05:19;98308.91;;;8.11;100.00
48077;BME280;33854;57.708;12.008;2023-04-25T04:07:45;98295.78;;;8.13;100.00
48077;BME280;33854;57.708;12.008;2023-04-25T04:10:10;98280.66;;;8.07;100.00
48077;BME280;33854;57.708;12.008;2023-04-25T04:12:36;98280.19;;;8.13;100.00
48077;BME280;33854;57.708;12.008;2023-04-25T04:15:03;98279.25;;;8.14;100.00
48077;BME280;33854;57.708;12.008;2023-04-25T04:17:30;98268.88;;;8.14;100.00
48077;BME280;33854;57.708;12.008;2023-04-25T04:19:56;98261.19;;;8.12;100.00
48077;BME280;33854;57.708;12.008;2023-04-25T04:22:22;98260.94;;;8.15;100.00
48077;BME280;33854;57.708;12.008;2023-04-25T04:24:47;98255.88;;;8.14;100.00
48077;BME280;33854;57.708;12.008;2023-04-25T04:27:13;98246.44;;;8.13;100.00
48077;BME280;33854;57.708;12.008;2023-04-25T04:29:38;98247.16;;;8.15;100.00
48077;BME280;33854;57.708;12.008;2023-04-25T04:32:04;98245.25;;;8.17;100.00
48077;BME280;33854;57.708;12.008;2023-04-25T04:34:30;98243.00;;;8.12;100.00
48077;BME280;33854;57.708;12.008;2023-04-25T04:36:56;98248.31;;;8.11;100.00
48077;BME280;33854;57.708;12.008;2023-04-25T04:39:22;98256.72;;;8.14;100.00
48077;BME280;33854;57.708;12.008;2023-04-25T04:41:47;98260.94;;;8.15;100.00
48077;BME280;33854;57.708;12.008;2023-04-25T04:44:13;98269.72;;;8.14;100.00
48077;BME280;33854;57.708;12.008;2023-04-25T04:46:39;98285.16;;;8.16;100.00
48077;BME280;33854;57.708;12.008;2023-04-25T04:49:05;98299.44;;;8.10;100.00
48077;BME280;33854;57.708;12.008;2023-04-25T04:51:31;98325.09;;;8.15;100.00
48077;BME280;33854;57.708;12.008;2023-04-25T04:53:57;98337.97;;;8.16;100.00
48077;BME280;33854;57.708;12.008;2023-04-25T04:56:24;98344.00;;;8.17;100.00
48077;BME280;33854;57.708;12.008;2023-04-25T04:58:51;98354.13;;;8.09;100.00
48077;BME280;33854;57.708;12.008;2023-04-25T05:01:17;98365.69;;;8.16;100.00
48077;BME280;33854;57.708;12.008;2023-04-25T05:03:43;98385.88;;;8.12;100.00
48077;BME280;33854;57.708;12.008;2023-04-25T05:06:08;98386.72;;;8.13;100.00
48077;BME280;33854;57.708;12.008;2023-04-25T05:08:34;98398.78;;;8.14;100.00
48077;BME280;33854;57.708;12.008;2023-04-25T05:10:59;98401.47;;;8.12;100.00
48077;BME280;33854;57.708;12.008;2023-04-25T05:13:25;98398.88;;;8.12;100.00
48077;BME280;33854;57.708;12.008;2023-04-25T05:15:50;98410.69;;;8.16;100.00
48077;BME280;33854;57.708;12.008;2023-04-25T05:18:16;98407.03;;;8.19;100.00
48077;BME280;33854;57.708;12.008;2023-04-25T05:20:41;98386.94;;;8.10;100.00
48077;BME280;33854;57.708;12.008;2023-04-25T05:23:07;98368.88;;;8.08;100.00
48077;BME280;33854;57.708;12.008;2023-04-25T05:25:32;98383.06;;;8.15;100.00
48077;BME280;33854;57.708;12.008;2023-04-25T05:27:58;98370.22;;;8.25;100.00
48077;BME280;33854;57.708;12.008;2023-04-25T05:30:24;98360.13;;;8.33;100.00
48077;BME280;33854;57.708;12.008;2023-04-25T05:32:49;98348.09;;;8.32;100.00
48077;BME280;33854;57.708;12.008;2023-04-25T05:35:15;98336.97;;;8.30;100.00
48077;BME280;33854;57.708;12.008;2023-04-25T05:37:41;98334.34;;;8.30;100.00
48077;BME280;33854;57.708;12.008;2023-04-25T05:40:06;98324.16;;;8.27;100.00
48077;BME280;33854;57.708;12.008;2023-04-25T05:42:32;98323.47;;;8.25;100.00
48077;BME280;33854;57.708;12.008;2023-04-25T05:44:58;98333.16;;;8.23;100.00
48077;BME280;33854;57.708;12.008;2023-04-25T05:47:23;98338.34;;;8.23;100.00
48077;BME280;33854;57.708;12.008;2023-04-25T05:49:49;98332.81;;;8.27;100.00
48077;BME280;33854;57.708;12.008;2023-04-25T05:52:14;98332.91;;;8.26;100.00
48077;BME280;33854;57.708;12.008;2023-04-25T05:54:40;98324.03;;;8.17;100.00
48077;BME280;33854;57.708;12.008;2023-04-25T05:57:06;98339.41;;;8.20;100.00
48077;BME280;33854;57.708;12.008;2023-04-25T05:59:31;98324.81;;;8.07;100.00
48077;BME280;33854;57.708;12.008;2023-04-25T06:01:57;98339.25;;;8.11;100.00
48077;BME280;33854;57.708;12.008;2023-04-25T06:04:22;98337.56;;;8.10;100.00
48077;BME280;33854;57.708;12.008;2023-04-25T06:06:48;98344.44;;;8.11;100.00
48077;BME280;33854;57.708;12.008;2023-04-25T06:09:13;98337.47;;;8.11;100.00
48077;BME280;33854;57.708;12.008;2023-04-25T06:11:39;98322.91;;;7.97;100.00
48077;BME280;33854;57.708;12.008;2023-04-25T06:14:05;98338.03;;;8.03;100.00
48077;BME280;33854;57.708;12.008;2023-04-25T06:16:31;98353.13;;;7.98;100.00
48077;BME280;33854;57.708;12.008;2023-04-25T06:18:56;98344.28;;;8.01;100.00
48077;BME280;33854;57.708;12.008;2023-04-25T06:21:21;98337.53;;;7.98;100.00
48077;BME280;33854;57.708;12.008;2023-04-25T06:23:47;98332.47;;;7.97;100.00
48077;BME280;33854;57.708;12.008;2023-04-25T06:26:13;98341.41;;;7.93;100.00
48077;BME280;33854;57.708;12.008;2023-04-25T06:28:38;98346.28;;;7.74;100.00
48077;BME280;33854;57.708;12.008;2023-04-25T06:31:04;98343.56;;;7.75;100.00
48077;BME280;33854;57.708;12.008;2023-04-25T06:33:29;98345.38;;;7.75;100.00
48077;BME280;33854;57.708;12.008;2023-04-25T06:35:55;98348.31;;;7.81;100.00
48077;BME280;33854;57.708;12.008;2023-04-25T06:38:20;98343.34;;;7.78;100.00
48077;BME280;33854;57.708;12.008;2023-04-25T06:40:46;98359.50;;;7.71;100.00
48077;BME280;33854;57.708;12.008;2023-04-25T06:43:11;98372.28;;;7.61;100.00
48077;BME280;33854;57.708;12.008;2023-04-25T06:45:37;98389.75;;;7.59;100.00
48077;BME280;33854;57.708;12.008;2023-04-25T06:48:02;98409.47;;;7.49;100.00
48077;BME280;33854;57.708;12.008;2023-04-25T06:50:28;98420.81;;;7.48;100.00
48077;BME280;33854;57.708;12.008;2023-04-25T06:52:53;98423.41;;;7.48;100.00
48077;BME280;33854;57.708;12.008;2023-04-25T06:55:19;98442.94;;;7.41;100.00
48077;BME280;33854;57.708;12.008;2023-04-25T06:57:44;98454.47;;;7.37;100.00
48077;BME280;33854;57.708;12.008;2023-04-25T07:00:10;98471.09;;;7.34;100.00
48077;BME280;33854;57.708;12.008;2023-04-25T07:02:36;98484.47;;;7.28;100.00
48077;BME280;33854;57.708;12.008;2023-04-25T07:05:02;98492.03;;;7.31;100.00
48077;BME280;33854;57.708;12.008;2023-04-25T07:07:29;98499.94;;;7.42;100.00
48077;BME280;33854;57.708;12.008;2023-04-25T07:09:55;98509.69;;;7.39;100.00
48077;BME280;33854;57.708;12.008;2023-04-25T07:12:21;98540.19;;;7.48;100.00
48077;BME280;33854;57.708;12.008;2023-04-25T07:14:46;98547.28;;;7.46;100.00
48077;BME280;33854;57.708;12.008;2023-04-25T07:17:12;98570.81;;;7.43;100.00
48077;BME280;33854;57.708;12.008;2023-04-25T07:19:37;98585.13;;;7.36;100.00
48077;BME280;33854;57.708;12.008;2023-04-25T07:22:05;98594.16;;;7.30;100.00
48077;BME280;33854;57.708;12.008;2023-04-25T07:24:31;98618.34;;;7.31;100.00
48077;BME280;33854;57.708;12.008;2023-04-25T07:26:56;98633.91;;;7.43;100.00
48077;BME280;33854;57.708;12.008;2023-04-25T07:29:23;98642.53;;;7.44;100.00
48077;BME280;33854;57.708;12.008;2023-04-25T07:31:48;98674.88;;;7.65;100.00
48077;BME280;33854;57.708;12.008;2023-04-25T07:34:14;98695.03;;;7.74;100.00
48077;BME280;33854;57.708;12.008;2023-04-25T07:36:39;98741.66;;;7.76;100.00
48077;BME280;33854;57.708;12.008;2023-04-25T07:39:05;98754.44;;;7.79;100.00
48077;BME280;33854;57.708;12.008;2023-04-25T07:41:30;98777.09;;;7.89;100.00
48077;BME280;33854;57.708;12.008;2023-04-25T07:43:56;98784.09;;;7.62;100.00
48077;BME280;33854;57.708;12.008;2023-04-25T07:46:21;98806.69;;;7.74;100.00
48077;BME280;33854;57.708;12.008;2023-04-25T07:48:47;98815.50;;;7.72;100.00
48077;BME280;33854;57.708;12.008;2023-04-25T07:51:12;98833.38;;;7.76;100.00
48077;BME280;33854;57.708;12.008;2023-04-25T07:53:37;98836.03;;;7.62;100.00
48077;BME280;33854;57.708;12.008;2023-04-25T07:56:03;98867.81;;;7.66;100.00
48077;BME280;33854;57.708;12.008;2023-04-25T07:58:29;98877.41;;;7.51;100.00
48077;BME280;33854;57.708;12.008;2023-04-25T08:00:54;98879.00;;;7.39;100.00
48077;BME280;33854;57.708;12.008;2023-04-25T08:03:20;98888.34;;;7.42;100.00
48077;BME280;33854;57.708;12.008;2023-04-25T08:05:46;98892.03;;;7.52;100.00
48077;BME280;33854;57.708;12.008;2023-04-25T08:08:11;98892.84;;;7.67;100.00
48077;BME280;33854;57.708;12.008;2023-04-25T08:10:37;98905.94;;;7.65;100.00
48077;BME280;33854;57.708;12.008;2023-04-25T08:13:02;98926.75;;;7.37;100.00
48077;BME280;33854;57.708;12.008;2023-04-25T08:15:28;98925.63;;;7.27;100.00
48077;BME280;33854;57.708;12.008;2023-04-25T08:17:53;98945.66;;;7.25;100.00
48077;BME280;33854;57.708;12.008;2023-04-25T08:20:19;98952.41;;;7.41;100.00
48077;BME280;33854;57.708;12.008;2023-04-25T08:22:44;98961.94;;;7.41;100.00
48077;BME280;33854;57.708;12.008;2023-04-25T08:25:10;98990.84;;;7.49;100.00
48077;BME280;33854;57.708;12.008;2023-04-25T08:27:35;99004.50;;;7.38;100.00
48077;BME280;33854;57.708;12.008;2023-04-25T08:30:02;98997.00;;;7.34;100.00
48077;BME280;33854;57.708;12.008;2023-04-25T08:32:28;99000.31;;;7.36;100.00
48077;BME280;33854;57.708;12.008;2023-04-25T08:34:53;99001.16;;;7.36;100.00
48077;BME280;33854;57.708;12.008;2023-04-25T08:37:20;99006.59;;;7.32;100.00
48077;BME280;33854;57.708;12.008;2023-04-25T08:39:46;99011.25;;;7.41;100.00
48077;BME280;33854;57.708;12.008;2023-04-25T08:42:14;98997.16;;;7.59;100.00
48077;BME280;33854;57.708;12.008;2023-04-25T08:44:40;98999.94;;;7.56;100.00
48077;BME280;33854;57.708;12.008;2023-04-25T08:47:06;99023.59;;;7.52;100.00
48077;BME280;33854;57.708;12.008;2023-04-25T08:49:32;99035.75;;;7.51;100.00
48077;BME280;33854;57.708;12.008;2023-04-25T08:52:00;99045.94;;;7.40;100.00
48077;BME280;33854;57.708;12.008;2023-04-25T08:54:27;99050.66;;;7.33;100.00
48077;BME280;33854;57.708;12.008;2023-04-25T08:56:55;99056.56;;;7.35;100.00
48077;BME280;33854;57.708;12.008;2023-04-25T08:59:23;99060.66;;;7.25;100.00
48077;BME280;33854;57.708;12.008;2023-04-25T09:01:51;99059.81;;;7.25;100.00
48077;BME280;33854;57.708;12.008;2023-04-25T09:04:18;99064.72;;;7.29;100.00
48077;BME280;33854;57.708;12.008;2023-04-25T09:06:46;99067.25;;;7.45;100.00
48077;BME280;33854;57.708;12.008;2023-04-25T09:09:11;99095.09;;;7.57;100.00
48077;BME280;33854;57.708;12.008;2023-04-25T09:11:37;99087.47;;;7.40;100.00
48077;BME280;33854;57.708;12.008;2023-04-25T09:14:22;99082.13;;;7.13;100.00
48077;BME280;33854;57.708;12.008;2023-04-25T09:19:28;99092.41;;;7.29;100.00
48077;BME280;33854;57.708;12.008;2023-04-25T09:21:56;99108.28;;;7.38;100.00
48077;BME280;33854;57.708;12.008;2023-04-25T09:27:13;99126.25;;;7.57;100.00
48077;BME280;33854;57.708;12.008;2023-04-25T09:29:43;99111.28;;;7.46;100.00
48077;BME280;33854;57.708;12.008;2023-04-25T09:32:16;99142.06;;;7.53;100.00
48077;BME280;33854;57.708;12.008;2023-04-25T09:34:43;99150.03;;;7.50;100.00
48077;BME280;33854;57.708;12.008;2023-04-25T09:37:10;99157.72;;;7.37;100.00
48077;BME280;33854;57.708;12.008;2023-04-25T09:39:37;99166.25;;;7.23;100.00
48077;BME280;33854;57.708;12.008;2023-04-25T09:42:03;99171.56;;;7.22;100.00
48077;BME280;33854;57.708;12.008;2023-04-25T09:44:28;99162.72;;;7.10;100.00
48077;BME280;33854;57.708;12.008;2023-04-25T09:46:54;99174.72;;;7.27;100.00
48077;BME280;33854;57.708;12.008;2023-04-25T09:49:20;99184.78;;;7.47;100.00
48077;BME280;33854;57.708;12.008;2023-04-25T09:51:56;99197.56;;;7.36;100.00
48077;BME280;33854;57.708;12.008;2023-04-25T09:54:23;99219.66;;;7.27;100.00
48077;BME280;33854;57.708;12.008;2023-04-25T09:56:48;99218.41;;;7.64;100.00
48077;BME280;33854;57.708;12.008;2023-04-25T09:59:19;99224.00;;;7.86;100.00
48077;BME280;33854;57.708;12.008;2023-04-25T10:01:45;99238.91;;;8.13;100.00
48077;BME280;33854;57.708;12.008;2023-04-25T10:04:11;99250.66;;;8.34;100.00
48077;BME280;33854;57.708;12.008;2023-04-25T10:06:37;99268.66;;;8.37;100.00
48077;BME280;33854;57.708;12.008;2023-04-25T10:09:03;99266.19;;;8.06;100.00
48077;BME280;33854;57.708;12.008;2023-04-25T10:11:30;99270.84;;;8.15;100.00
48077;BME280;33854;57.708;12.008;2023-04-25T10:13:57;99271.19;;;7.94;100.00
48077;BME280;33854;57.708;12.008;2023-04-25T10:16:24;99267.38;;;7.70;100.00
48077;BME280;33854;57.708;12.008;2023-04-25T10:18:50;99279.00;;;7.79;100.00
48077;BME280;33854;57.708;12.008;2023-04-25T10:21:17;99289.78;;;7.57;100.00
48077;BME280;33854;57.708;12.008;2023-04-25T10:23:43;99275.75;;;7.75;100.00
48077;BME280;33854;57.708;12.008;2023-04-25T10:26:10;99276.34;;;7.80;100.00
48077;BME280;33854;57.708;12.008;2023-04-25T10:31:22;99285.66;;;8.13;100.00
48077;BME280;33854;57.708;12.008;2023-04-25T10:33:48;99292.53;;;7.99;100.00
48077;BME280;33854;57.708;12.008;2023-04-25T10:36:18;99292.13;;;7.91;100.00
48077;BME280;33854;57.708;12.008;2023-04-25T10:38:45;99303.72;;;7.70;100.00
48077;BME280;33854;57.708;12.008;2023-04-25T10:41:12;99304.41;;;7.58;100.00
48077;BME280;33854;57.708;12.008;2023-04-25T10:43:43;99295.72;;;7.43;100.00
48077;BME280;33854;57.708;12.008;2023-04-25T10:46:16;99314.13;;;7.70;100.00
48077;BME280;33854;57.708;12.008;2023-04-25T10:48:49;99315.03;;;7.69;100.00
48077;BME280;33854;57.708;12.008;2023-04-25T10:51:29;99307.53;;;7.49;100.00
48077;BME280;33854;57.708;12.008;2023-04-25T10:53:56;99326.63;;;7.48;100.00
48077;BME280;33854;57.708;12.008;2023-04-25T10:56:26;99322.75;;;7.55;100.00
48077;BME280;33854;57.708;12.008;2023-04-25T10:58:51;99329.16;;;7.18;100.00
48077;BME280;33854;57.708;12.008;2023-04-25T11:01:36;99342.44;;;7.12;100.00
48077;BME280;33854;57.708;12.008;2023-04-25T11:04:02;99337.94;;;7.00;100.00
48077;BME280;33854;57.708;12.008;2023-04-25T11:09:17;99330.53;;;6.93;100.00
48077;BME280;33854;57.708;12.008;2023-04-25T11:11:53;99325.94;;;6.82;100.00
48077;BME280;33854;57.708;12.008;2023-04-25T11:14:19;99328.28;;;6.86;100.00
48077;BME280;33854;57.708;12.008;2023-04-25T11:16:45;99332.81;;;6.99;100.00
48077;BME280;33854;57.708;12.008;2023-04-25T11:19:11;99336.78;;;7.06;100.00
48077;BME280;33854;57.708;12.008;2023-04-25T11:21:36;99328.47;;;6.99;100.00
48077;BME280;33854;57.708;12.008;2023-04-25T11:24:02;99348.03;;;6.89;100.00
48077;BME280;33854;57.708;12.008;2023-04-25T11:26:28;99340.59;;;6.99;100.00
48077;BME280;33854;57.708;12.008;2023-04-25T11:28:59;99354.50;;;7.13;100.00
48077;BME280;33854;57.708;12.008;2023-04-25T11:31:25;99360.34;;;7.01;100.00
48077;BME280;33854;57.708;12.008;2023-04-25T11:33:53;99365.88;;;7.26;100.00
48077;BME280;33854;57.708;12.008;2023-04-25T11:36:19;99363.72;;;7.50;100.00
48077;BME280;33854;57.708;12.008;2023-04-25T11:38:45;99352.94;;;7.42;100.00
48077;BME280;33854;57.708;12.008;2023-04-25T11:41:10;99367.22;;;7.49;100.00
48077;BME280;33854;57.708;12.008;2023-04-25T11:43:36;99353.59;;;7.14;100.00
48077;BME280;33854;57.708;12.008;2023-04-25T11:46:06;99370.09;;;7.44;100.00
48077;BME280;33854;57.708;12.008;2023-04-25T11:48:39;99363.56;;;7.22;100.00
48077;BME280;33854;57.708;12.008;2023-04-25T11:51:05;99367.47;;;7.29;100.00
48077;BME280;33854;57.708;12.008;2023-04-25T11:53:31;99364.84;;;6.98;100.00
48077;BME280;33854;57.708;12.008;2023-04-25T11:55:56;99388.41;;;7.10;100.00
48077;BME280;33854;57.708;12.008;2023-04-25T11:58:22;99408.03;;;7.31;100.00
48077;BME280;33854;57.708;12.008;2023-04-25T12:00:48;99392.00;;;7.23;100.00
48077;BME280;33854;57.708;12.008;2023-04-25T12:03:13;99399.13;;;7.20;100.00
48077;BME280;33854;57.708;12.008;2023-04-25T12:05:38;99394.81;;;7.03;100.00
48077;BME280;33854;57.708;12.008;2023-04-25T12:10:38;99408.41;;;7.24;100.00
48077;BME280;33854;57.708;12.008;2023-04-25T12:13:26;99416.34;;;7.21;100.00
48077;BME280;33854;57.708;12.008;2023-04-25T12:15:54;99408.72;;;7.02;100.00
48077;BME280;33854;57.708;12.008;2023-04-25T12:18:23;99408.09;;;7.30;100.00
48077;BME280;33854;57.708;12.008;2023-04-25T12:20:49;99411.38;;;7.33;100.00
48077;BME280;33854;57.708;12.008;2023-04-25T12:23:14;99417.56;;;7.31;100.00
48077;BME280;33854;57.708;12.008;2023-04-25T12:25:41;99418.16;;;7.36;100.00
48077;BME280;33854;57.708;12.008;2023-04-25T12:31:03;99433.47;;;7.40;100.00
48077;BME280;33854;57.708;12.008;2023-04-25T12:33:38;99432.97;;;7.34;100.00
48077;BME280;33854;57.708;12.008;2023-04-25T12:36:06;99429.16;;;7.24;100.00
48077;BME280;33854;57.708;12.008;2023-04-25T12:38:39;99443.63;;;7.12;100.00
48077;BME280;33854;57.708;12.008;2023-04-25T12:41:06;99437.16;;;7.04;100.00
48077;BME280;33854;57.708;12.008;2023-04-25T12:43:31;99434.56;;;7.04;100.00
48077;BME280;33854;57.708;12.008;2023-04-25T12:45:57;99438.38;;;7.14;100.00
48077;BME280;33854;57.708;12.008;2023-04-25T12:48:23;99427.16;;;7.29;100.00
48077;BME280;33854;57.708;12.008;2023-04-25T12:50:50;99448.59;;;7.17;100.00
48077;BME280;33854;57.708;12.008;2023-04-25T12:53:17;99444.50;;;6.96;100.00
48077;BME280;33854;57.708;12.008;2023-04-25T12:55:43;99441.53;;;6.86;100.00
48077;BME280;33854;57.708;12.008;2023-04-25T12:58:11;99437.97;;;6.88;100.00
48077;BME280;33854;57.708;12.008;2023-04-25T13:00:36;99460.94;;;6.79;100.00
48077;BME280;33854;57.708;12.008;2023-04-25T13:03:02;99436.91;;;6.58;100.00